Time;durP1;ratioP1;P1;durP2;ratioP2;P2;SDS_P1;SDS_P2;PMS_P1;PMS_P2;Temp;Humidity;BMP_temperature;BMP_pressure;BME280_temperature;BME280_humidity;BME280_pressure;Samples;Min_cycle;Max_cycle;Signal;HPM_P1;HPM_P2
2022/11/16 00:00:11;;;;;;;38.17;22.90;;;7.10;99.90;;;5.55;100.00;100648.53;4962416;28;20050;-86
2022/11/16 00:06:30;;;;;;;65.18;33.47;;;7.10;99.90;;;5.60;100.00;100655.41;4954400;28;20640;-86
2022/11/16 00:13:01;;;;;;;63.92;25.05;;;;;;;5.65;100.00;100661.34;4949030;29;20539;-86
2022/11/16 00:19:22;;;;;;;72.45;24.00;;;;;;;5.47;100.00;100650.50;4911535;29;20067;-86
2022/11/16 00:25:41;;;;;;;87.28;31.23;;;;;;;5.58;100.00;100655.44;4891160;23;20128;-86
2022/11/16 00:31:40;;;;;;;93.18;32.28;;;;;;;5.52;100.00;100660.81;4910451;29;20043;-86
2022/11/16 00:37:42;;;;;;;101.18;32.88;;;;;;;5.52;100.00;100671.25;5034265;23;20529;-86
2022/11/16 00:47:51;;;;;;;93.97;33.58;;;7.10;99.90;;;5.54;100.00;100665.09;5038658;23;20069;-86
2022/11/16 00:55:02;;;;;;;1999.90;999.90;;;7.00;99.90;;;5.52;100.00;100666.88;4995831;28;20043;-83
2022/11/16 00:57:31;;;;;;;1999.90;999.90;;;7.00;99.90;;;5.49;100.00;100658.31;4978528;28;20030;-86
2022/11/16 01:04:43;;;;;;;1999.90;999.90;;;;;;;5.41;100.00;100660.25;4910168;29;20078;-85
2022/11/16 01:08:29;;;;;;;158.68;64.78;;;7.00;99.90;;;5.35;100.00;100661.25;5008612;23;20038;-85
2022/11/16 01:14:43;;;;;;;;;;;;;;;;;;;;;
2022/11/16 01:21:12;;;;;;;65.50;42.78;;;7.00;99.90;;;5.47;100.00;100637.44;5009759;28;20061;-85
2022/11/16 01:28:12;;;;;;;110.50;32.95;;;7.00;99.90;;;5.40;100.00;100641.13;5013977;23;1262688;-85
2022/11/16 01:31:49;;;;;;;129.20;43.38;;;7.00;99.90;;;5.39;100.00;100636.78;4921175;29;20099;-84
2022/11/16 01:35:00;;;;;;;1999.90;999.90;;;7.00;99.90;;;5.39;100.00;100628.09;4899276;29;20095;-86
2022/11/16 01:38:03;;;;;;;1999.90;999.90;;;7.00;99.90;;;5.35;100.00;100628.16;4897847;29;20052;-85
2022/11/16 01:40:42;;;;;;;1999.90;999.90;;;7.00;99.90;;;5.44;100.00;100620.97;4911730;29;20040;-85
2022/11/16 01:43:50;;;;;;;1999.90;999.90;;;7.00;99.90;;;5.52;100.00;100625.09;4919268;29;20582;-85
2022/11/16 01:46:50;;;;;;;;;;;7.10;99.90;;;5.52;100.00;100629.47;4995109;23;20524;-85
2022/11/16 01:50:29;;;;;;;76.63;32.25;;;7.00;99.90;;;5.41;100.00;100623.69;4994585;28;19913;-86
2022/11/16 01:59:51;;;;;;;61.53;28.67;;;;;;;5.37;100.00;100617.69;4873344;29;20059;-84
2022/11/16 02:02:20;;;;;;;57.85;29.27;;;7.00;99.90;;;5.40;100.00;100622.84;4955673;28;20832;-85
2022/11/16 02:05:59;;;;;;;;;;;;;;;;;;;;;
2022/11/16 02:20:43;;;;;;;55.40;26.85;;;7.10;99.90;;;5.57;100.00;100598.00;4950048;29;20050;-85
2022/11/16 02:24:11;;;;;;;52.63;28.33;;;7.20;99.90;;;5.61;100.00;100589.19;4951594;29;20046;-85
2022/11/16 02:27:33;;;;;;;53.03;27.20;;;7.10;99.90;;;5.62;100.00;100593.53;5012509;22;20049;-82
2022/11/16 02:29:59;;;;;;;50.08;25.90;;;7.10;99.90;;;5.56;100.00;100610.22;5034130;28;20436;-82
2022/11/16 02:32:35;;;;;;;48.78;26.02;;;7.10;99.90;;;5.61;100.00;100602.25;5015599;28;20049;-81
2022/11/16 02:35:18;;;;;;;38.75;22.90;;;7.10;99.90;;;5.60;100.00;100603.16;5030736;28;20057;-80
2022/11/16 02:37:59;;;;;;;47.75;25.05;;;7.10;99.90;;;5.60;100.00;100595.31;4999963;28;20399;-81
2022/11/16 02:40:38;;;;;;;43.05;24.15;;;7.20;99.90;;;5.67;100.00;100596.84;5009946;28;20077;-82
2022/11/16 02:43:11;;;;;;;38.70;22.77;;;7.10;99.90;;;5.62;100.00;100594.38;5017150;28;20113;-80
2022/11/16 02:45:46;;;;;;;42.08;23.95;;;7.20;99.90;;;5.68;100.00;100595.94;5009943;28;20026;-83
2022/11/16 02:48:24;;;;;;;34.40;21.83;;;7.10;99.90;;;5.58;100.00;100584.06;5010035;28;20096;-80
2022/11/16 02:50:52;;;;;;;26.67;17.15;;;7.10;99.90;;;5.57;100.00;100584.94;5014324;28;20136;-81
2022/11/16 02:53:23;;;;;;;36.22;20.83;;;7.10;99.90;;;5.66;100.00;100580.34;5015481;28;20046;-80
2022/11/16 02:55:49;;;;;;;31.60;19.45;;;7.20;99.90;;;5.71;100.00;100582.81;5011198;28;20034;-80
2022/11/16 02:58:27;;;;;;;34.30;21.00;;;7.20;99.90;;;5.63;100.00;100579.56;5015902;28;20026;-81
2022/11/16 03:01:04;;;;;;;41.70;27.00;;;7.10;99.90;;;5.61;100.00;100589.19;4996460;28;20053;-81
2022/11/16 03:03:40;;;;;;;33.58;20.60;;;7.10;99.90;;;5.63;100.00;100587.38;5016784;28;20042;-82
2022/11/16 03:06:19;;;;;;;;;;;7.20;99.90;;;5.57;100.00;100585.78;5013051;28;20029;-81
2022/11/16 03:09:01;;;;;;;32.60;20.20;;;7.10;99.90;;;5.58;100.00;100584.06;5011478;28;19913;-81
2022/11/16 03:14:26;;;;;;;30.65;19.45;;;7.20;99.90;;;5.75;100.00;100598.34;5006960;28;20037;-81
2022/11/16 03:17:00;;;;;;;84.90;58.85;;;7.20;99.90;;;5.64;100.00;100581.28;5008215;28;20034;-79
2022/11/16 03:19:44;;;;;;;31.55;21.17;;;7.10;99.90;;;5.61;100.00;100576.97;5009096;28;20068;-82
2022/11/16 03:22:36;;;;;;;29.17;18.67;;;7.20;99.90;;;5.63;100.00;100576.94;4999188;28;20116;-84
2022/11/16 03:25:10;;;;;;;21.45;14.48;;;7.10;99.90;;;5.51;100.00;100583.38;5006847;28;20026;-82
2022/11/16 03:27:50;;;;;;;30.02;18.40;;;7.00;99.90;;;5.50;100.00;100581.66;5007905;28;20038;-84
2022/11/16 03:30:49;;;;;;;172.38;120.63;;;7.10;99.90;;;5.41;100.00;100561.03;4990877;28;20041;-85
2022/11/16 03:33:43;;;;;;;28.15;19.02;;;7.00;99.90;;;5.41;100.00;100567.09;5016205;28;20027;-83
2022/11/16 03:36:23;;;;;;;26.15;20.38;;;7.00;99.90;;;5.42;100.00;100568.81;5011673;28;20046;-84
2022/11/16 03:38:52;;;;;;;0.00;0.00;;;7.00;99.90;;;5.44;100.00;100568.75;5010760;28;20041;-83
2022/11/16 03:41:28;;;;;;;143.73;49.78;;;7.00;99.90;;;5.40;100.00;100559.28;5009719;28;20027;-84
2022/11/16 03:44:02;;;;;;;4.05;3.85;;;7.00;99.90;;;5.45;100.00;100566.13;4997935;28;20152;-83
2022/11/16 03:46:28;;;;;;;0.60;0.60;;;7.00;99.90;;;5.35;100.00;100562.88;4992628;28;20075;-84
2022/11/16 03:48:59;;;;;;;6.47;6.07;;;7.00;99.90;;;5.46;100.00;100567.81;5014372;28;20138;-82
2022/11/16 03:51:33;;;;;;;0.00;0.00;;;7.00;99.90;;;5.47;100.00;100566.94;5010340;28;20042;-84
2022/11/16 03:53:58;;;;;;;0.00;0.00;;;7.00;99.90;;;5.49;100.00;100575.56;5011038;28;20036;-83
2022/11/16 03:56:24;;;;;;;0.00;0.00;;;6.90;99.90;;;5.33;100.00;100567.31;5007727;28;20030;-83
2022/11/16 03:58:50;;;;;;;0.00;0.00;;;7.00;99.90;;;5.37;100.00;100570.69;5009568;28;20034;-84
2022/11/16 04:01:16;;;;;;;0.00;0.00;;;7.00;99.90;;;5.37;100.00;100559.38;4990472;28;20033;-83
2022/11/16 04:03:41;;;;;;;0.00;0.00;;;6.90;99.90;;;5.33;100.00;100558.59;5007794;28;20026;-84
2022/11/16 04:25:56;;;;;;;0.00;0.00;;;7.00;99.90;;;5.40;100.00;100539.28;5006791;28;20073;-83
2022/11/16 04:28:32;;;;;;;0.00;0.00;;;7.00;99.90;;;5.43;100.00;100547.03;5007385;28;20052;-85
2022/11/16 04:39:19;;;;;;;0.00;0.00;;;7.10;99.90;;;5.60;100.00;100538.72;5011356;28;20037;-83
2022/11/16 04:47:05;;;;;;;0.00;0.00;;;7.20;99.90;;;5.66;100.00;100543.75;5009310;28;20445;-82
2022/11/16 04:47:17;;;;;;;0.00;0.00;;;7.20;99.90;;;5.78;100.00;100549.53;5008200;28;20042;-83
2022/11/16 04:49:43;;;;;;;0.00;0.00;;;7.20;99.90;;;5.76;100.00;100547.78;4992081;28;20042;-82
2022/11/16 04:52:09;;;;;;;0.00;0.00;;;7.30;99.90;;;5.78;100.00;100562.59;5010421;28;20065;-83
2022/11/16 04:54:35;;;;;;;0.00;0.00;;;7.40;99.90;;;5.88;100.00;100546.59;5004294;28;20484;-83
2022/11/16 04:57:01;;;;;;;0.00;0.00;;;7.30;99.90;;;5.88;100.00;100549.19;4989930;28;20084;-81
2022/11/16 04:59:34;;;;;;;0.00;0.00;;;7.40;99.90;;;5.87;100.00;100552.69;4991780;28;20034;-82
2022/11/16 05:02:11;;;;;;;0.00;0.00;;;7.30;99.90;;;5.81;100.00;100550.28;5008203;28;20029;-83
2022/11/16 05:04:41;;;;;;;0.00;0.00;;;7.40;99.90;;;5.89;100.00;100537.81;5009754;28;20031;-83
2022/11/16 05:07:13;;;;;;;0.00;0.00;;;7.40;99.90;;;5.91;100.00;100556.09;5005096;28;20034;-83
2022/11/16 05:09:45;;;;;;;0.00;0.00;;;7.40;99.90;;;6.01;100.00;100548.88;4990358;28;20054;-81
2022/11/16 05:12:24;;;;;;;0.00;0.00;;;7.50;99.90;;;6.03;100.00;100541.84;5007553;28;20085;-83
2022/11/16 05:14:50;;;;;;;0.00;0.00;;;7.50;99.90;;;5.91;100.00;100538.63;5010101;28;20061;-83
2022/11/16 05:17:20;;;;;;;0.00;0.00;;;7.50;99.90;;;5.97;100.00;100549.88;5006742;28;20101;-84
2022/11/16 05:22:32;;;;;;;0.00;0.00;;;7.60;99.90;;;6.08;100.00;100547.78;5004740;28;20572;-83
2022/11/16 05:24:58;;;;;;;0.00;0.00;;;7.50;99.90;;;5.93;100.00;100533.38;5009459;28;20056;-83
2022/11/16 05:27:28;;;;;;;0.00;0.00;;;7.50;99.90;;;6.01;99.88;100527.97;5008906;28;20042;-81
2022/11/16 05:29:57;;;;;;;0.00;0.00;;;7.50;99.90;;;6.03;99.38;100534.00;5009354;28;20106;-84
2022/11/16 05:32:25;;;;;;;0.00;0.00;;;7.50;99.90;;;6.03;99.04;100529.63;5003988;28;20022;-83
2022/11/16 05:34:50;;;;;;;0.00;0.00;;;7.50;99.90;;;6.06;98.50;100518.22;5008615;28;20383;-81
2022/11/16 05:37:19;;;;;;;0.00;0.00;;;7.60;99.90;;;6.06;98.06;100518.22;4989111;28;20067;-83
2022/11/16 05:39:48;;;;;;;0.00;0.00;;;7.60;99.90;;;6.15;97.42;100528.38;5008659;28;20094;-83
2022/11/16 05:42:14;;;;;;;0.00;0.00;;;7.60;99.90;;;6.13;97.23;100517.09;5012764;28;20033;-83
2022/11/16 05:44:40;;;;;;;0.00;0.00;;;7.60;99.90;;;6.17;97.10;100513.50;5008643;28;20019;-83
2022/11/16 05:47:06;;;;;;;0.00;0.00;;;7.60;99.90;;;6.03;95.76;100510.47;5007297;28;20029;-84
2022/11/16 05:49:32;;;;;;;0.00;0.00;;;7.60;99.90;;;6.06;95.37;100507.75;5012123;28;20061;-84
2022/11/16 05:52:24;;;;;;;0.00;0.00;;;7.60;99.90;;;6.10;95.56;100509.38;5010379;28;20029;-83
2022/11/16 05:54:49;;;;;;;0.00;0.00;;;7.60;99.90;;;6.00;95.39;100514.00;4997879;28;20084;-83
2022/11/16 05:57:26;;;;;;;0.00;0.00;;;7.60;99.90;;;6.15;95.53;100525.75;4995011;28;20034;-83
2022/11/16 05:59:51;;;;;;;0.00;0.00;;;7.70;99.90;;;6.11;95.28;100527.63;5011607;28;20030;-82
2022/11/16 06:02:17;;;;;;;0.00;0.00;;;7.60;99.90;;;6.05;95.15;100532.19;4995722;28;20052;-82
2022/11/16 06:04:43;;;;;;;0.00;0.00;;;7.60;99.90;;;6.11;95.40;100537.19;5014946;28;20056;-85
2022/11/16 06:07:09;;;;;;;0.00;0.00;;;7.60;99.90;;;6.20;95.22;100539.56;5016544;28;20498;-84
2022/11/16 06:09:40;;;;;;;0.00;0.00;;;7.70;99.90;;;6.19;94.86;100523.91;4996810;28;20089;-83
2022/11/16 06:12:08;;;;;;;0.00;0.00;;;7.70;99.90;;;6.26;94.76;100541.94;5018923;28;20023;-83
2022/11/16 06:14:33;;;;;;;0.00;0.00;;;7.70;99.90;;;6.21;93.93;100533.41;5010453;28;20125;-84
2022/11/16 06:16:59;;;;;;;0.00;0.00;;;7.70;99.90;;;6.29;94.02;100533.19;5016605;28;20066;-83
2022/11/16 06:19:25;;;;;;;0.00;0.00;;;7.70;99.90;;;6.23;93.88;100535.97;5013667;28;20038;-83
2022/11/16 06:21:56;;;;;;;0.00;0.00;;;7.70;99.90;;;6.24;93.84;100533.31;5015973;28;20083;-82
2022/11/16 06:24:22;;;;;;;0.00;0.00;;;7.70;99.90;;;6.27;93.74;100541.06;5015945;28;20029;-82
2022/11/16 06:26:48;;;;;;;0.00;0.00;;;7.70;99.90;;;6.24;93.68;100542.91;5013329;28;20054;-82
2022/11/16 06:29:13;;;;;;;0.00;0.00;;;7.80;99.90;;;6.28;93.25;100539.28;5012630;28;20521;-82
2022/11/16 06:31:39;;;;;;;0.00;0.00;;;7.80;99.90;;;6.33;93.28;100540.03;5013643;28;20026;-83
2022/11/16 06:34:05;;;;;;;0.00;0.00;;;7.80;99.90;;;6.28;93.03;100549.75;5010506;28;20038;-83
2022/11/16 06:36:41;;;;;;;0.00;0.00;;;7.80;99.90;;;6.26;92.53;100549.78;5016593;28;20061;-84
2022/11/16 06:39:07;;;;;;;0.00;0.00;;;7.70;99.90;;;6.20;92.44;100546.50;5013086;28;20030;-82
2022/11/16 06:41:40;;;;;;;0.00;0.00;;;;;;;6.31;92.57;100545.28;5011757;28;20034;-82
2022/11/16 06:44:09;;;;;;;0.00;0.00;;;7.80;99.90;;;6.31;91.94;100540.06;5008725;28;20513;-84
2022/11/16 06:46:34;;;;;;;0.00;0.00;;;7.80;99.90;;;6.38;92.19;100551.19;5013985;28;20116;-83
2022/11/16 06:49:00;;;;;;;0.00;0.00;;;7.90;99.90;;;6.39;91.46;100555.50;4995193;28;20120;-83
2022/11/16 06:51:32;;;;;;;0.00;0.00;;;7.80;99.90;;;6.31;91.54;100555.75;5010261;28;20431;-82
2022/11/16 06:53:57;;;;;;;0.00;0.00;;;7.80;99.90;;;6.33;91.02;100560.94;5016525;28;20069;-84
2022/11/16 06:56:23;;;;;;;0.00;0.00;;;7.90;99.90;;;6.39;90.93;100549.41;5010189;28;20117;-83
2022/11/16 06:58:49;;;;;;;0.00;0.00;;;7.80;99.90;;;6.30;90.41;100554.03;5016434;28;20746;-83
2022/11/16 07:01:15;;;;;;;0.00;0.00;;;7.80;99.90;;;6.23;90.24;100549.06;5019747;28;20052;-83
2022/11/16 07:03:41;;;;;;;0.00;0.00;;;7.80;99.90;;;6.27;90.66;100542.81;4993829;28;20068;-81
2022/11/16 07:06:17;;;;;;;0.00;0.00;;;7.80;99.90;;;6.31;90.59;100553.13;5037133;22;20033;-84
2022/11/16 07:08:43;;;;;;;0.00;0.00;;;7.80;99.90;;;6.24;90.26;100554.25;4996056;28;20148;-82
2022/11/16 07:11:19;;;;;;;0.00;0.00;;;7.80;99.90;;;6.34;89.96;100546.94;4995479;28;20125;-82
2022/11/16 07:13:47;;;;;;;0.10;0.10;;;7.80;99.90;;;6.27;89.71;100554.13;4982344;28;20023;-82
2022/11/16 07:16:12;;;;;;;0.00;0.00;;;7.80;99.90;;;6.21;89.47;100577.84;4994645;28;20038;-82
2022/11/16 07:18:42;;;;;;;0.00;0.00;;;7.80;99.90;;;6.27;89.45;100554.13;4997757;28;20402;-83
2022/11/16 07:21:17;;;;;;;0.00;0.00;;;7.80;99.90;;;6.34;89.78;100562.63;5004174;28;20038;-84
2022/11/16 07:23:50;;;;;;;0.00;0.00;;;7.80;99.90;;;6.36;89.84;100559.06;5010602;28;20026;-83
2022/11/16 07:26:16;;;;;;;0.00;0.00;;;7.90;99.90;;;6.46;89.38;100561.41;5012998;28;20497;-82
2022/11/16 07:28:42;;;;;;;0.00;0.00;;;7.90;99.90;;;6.40;89.05;100554.59;5010357;28;20033;-84
2022/11/16 07:31:16;;;;;;;0.00;0.00;;;7.90;99.90;;;6.42;88.75;100567.63;5010468;28;20028;-84
2022/11/16 07:33:42;;;;;;;0.00;0.00;;;7.90;99.90;;;6.31;88.58;100568.81;5001440;28;20057;-84
2022/11/16 07:36:15;;;;;;;0.00;0.00;;;7.90;99.90;;;6.42;88.41;100560.63;5014343;28;20030;-83
2022/11/16 07:38:44;;;;;;;0.00;0.00;;;7.90;99.90;;;6.44;88.02;100566.69;5011514;28;20049;-83
2022/11/16 07:41:15;;;;;;;0.00;0.00;;;7.90;99.90;;;6.41;87.82;100565.91;5011817;28;20049;-84
2022/11/16 07:43:48;;;;;;;0.00;0.00;;;8.00;99.90;;;6.45;87.63;100564.91;4992736;28;20036;-80
2022/11/16 07:46:17;;;;;;;0.00;0.00;;;8.00;99.90;;;6.49;87.63;100556.06;5010124;28;20467;-81
2022/11/16 07:48:44;;;;;;;0.00;0.00;;;8.00;99.90;;;6.49;87.22;100553.44;5011852;28;20037;-81
2022/11/16 07:51:19;;;;;;;0.00;0.00;;;8.00;99.90;;;6.47;86.88;100547.41;5010726;28;20486;-83
2022/11/16 07:53:44;;;;;;;0.00;0.00;;;8.00;99.90;;;6.60;86.68;100551.34;5011578;28;20252;-83
2022/11/16 07:56:11;;;;;;;0.00;0.00;;;8.00;99.90;;;6.37;86.61;100552.06;4995241;28;20176;-82
2022/11/16 07:58:45;;;;;;;0.00;0.00;;;8.00;99.90;;;6.45;86.27;100562.28;5011027;28;20049;-83
2022/11/16 08:01:14;;;;;;;0.00;0.00;;;8.00;99.90;;;6.59;86.25;100554.88;5009982;28;20026;-82
2022/11/16 08:03:51;;;;;;;0.00;0.00;;;8.10;99.90;;;6.62;86.38;100565.22;5007203;28;20568;-82
2022/11/16 08:06:29;;;;;;;0.00;0.00;;;8.10;99.90;;;6.69;86.00;100569.34;5010813;28;20030;-82
2022/11/16 08:08:56;;;;;;;0.00;0.00;;;8.20;99.90;;;6.69;85.19;100577.19;5013666;28;20080;-84
2022/11/16 08:11:22;;;;;;;0.00;0.00;;;8.10;99.90;;;6.64;85.75;100584.34;5007131;28;20664;-82
2022/11/16 08:13:58;;;;;;;0.00;0.00;;;8.20;99.90;;;6.69;85.53;100577.19;5009554;28;20052;-83
2022/11/16 08:16:23;;;;;;;0.00;0.00;;;8.20;99.90;;;6.71;85.50;100585.84;5002686;28;20021;-82
2022/11/16 08:18:49;;;;;;;0.00;0.00;;;8.20;99.90;;;6.66;85.30;100579.91;5002754;28;20061;-82
2022/11/16 08:21:17;;;;;;;0.00;0.00;;;8.10;99.90;;;6.68;85.96;100582.50;5009527;28;20031;-81
2022/11/16 08:23:52;;;;;;;0.00;0.00;;;8.20;99.90;;;6.70;85.58;100583.28;4999501;28;20372;-82
2022/11/16 08:26:20;;;;;;;0.00;0.00;;;8.20;99.90;;;6.71;85.43;100582.38;5018419;22;20099;-83
2022/11/16 08:28:52;;;;;;;0.00;0.00;;;8.20;99.90;;;6.81;85.18;100590.78;4993059;28;20048;-81
2022/11/16 08:31:33;;;;;;;0.00;0.00;;;8.30;99.90;;;6.80;85.10;100599.53;4995140;28;20034;-83
2022/11/16 08:33:59;;;;;;;0.00;0.00;;;8.30;99.90;;;6.81;84.78;100596.88;5008484;28;20026;-84
2022/11/16 08:36:28;;;;;;;0.00;0.00;;;8.30;99.90;;;6.78;84.22;100602.19;4987340;28;20455;-83
2022/11/16 08:39:01;;;;;;;0.00;0.00;;;8.30;99.90;;;6.85;84.58;100608.97;4990390;28;20026;-83
2022/11/16 08:41:27;;;;;;;0.00;0.00;;;8.30;99.90;;;6.75;84.57;100612.78;4990101;28;20034;-81
2022/11/16 08:43:53;;;;;;;0.00;0.00;;;8.30;99.90;;;6.79;84.81;100606.53;4990096;28;20154;-81
2022/11/16 08:46:19;;;;;;;0.00;0.00;;;8.30;99.90;;;6.81;84.52;100611.72;4991880;28;20046;-82
2022/11/16 08:48:53;;;;;;;0.00;0.00;;;8.30;99.90;;;6.73;85.08;100618.03;4970648;28;20045;-82
2022/11/16 08:51:19;;;;;;;0.00;0.00;;;8.20;99.90;;;6.68;84.97;100613.88;4971068;28;20045;-81
2022/11/16 08:53:46;;;;;;;0.00;0.00;;;8.20;99.90;;;6.84;85.94;100606.38;4980489;28;20117;-82
2022/11/16 08:56:13;;;;;;;0.00;0.00;;;8.30;99.90;;;6.71;85.21;100609.38;5009150;28;20411;-81
2022/11/16 08:58:51;;;;;;;0.00;0.00;;;8.20;99.90;;;6.67;85.15;100604.31;4964922;28;20031;-82
2022/11/16 09:01:27;;;;;;;0.00;0.00;;;8.20;99.90;;;6.75;85.36;100615.38;4979776;28;20652;-81
2022/11/16 09:03:54;;;;;;;0.00;0.00;;;8.30;99.90;;;6.69;85.56;100608.59;4962260;28;20038;-81
2022/11/16 09:06:26;;;;;;;0.00;0.00;;;8.30;99.90;;;6.82;85.70;100608.19;4979128;28;20031;-83
2022/11/16 09:08:59;;;;;;;0.00;0.00;;;8.30;99.90;;;6.79;85.63;100606.53;4964503;28;20368;-81
2022/11/16 09:11:28;;;;;;;0.00;0.00;;;8.30;99.90;;;6.68;85.98;100606.88;4965161;28;20038;-81
2022/11/16 09:14:04;;;;;;;0.00;0.00;;;8.20;99.90;;;6.66;85.82;100613.94;4978889;28;20038;-83
2022/11/16 09:16:30;;;;;;;0.00;0.00;;;8.30;99.90;;;6.75;86.01;100613.63;4977647;28;20053;-83
2022/11/16 09:19:07;;;;;;;0.00;0.00;;;8.30;99.90;;;6.82;86.35;100614.28;4984464;28;20043;-80
2022/11/16 09:21:35;;;;;;;0.00;0.00;;;8.30;99.90;;;6.82;85.49;100618.66;4979783;28;20030;-82
2022/11/16 09:24:10;;;;;;;0.00;0.00;;;8.30;99.90;;;6.92;86.58;100614.84;4975255;28;20446;-82
2022/11/16 09:26:36;;;;;;;0.00;0.00;;;8.30;99.90;;;6.86;85.77;100610.66;4993070;28;20061;-83
2022/11/16 09:29:03;;;;;;;0.00;0.00;;;8.40;99.90;;;6.89;85.86;100626.28;4983042;28;20034;-81
2022/11/16 09:31:42;;;;;;;0.00;0.00;;;8.30;99.90;;;6.85;86.11;100615.97;4967305;28;20097;-83
2022/11/16 09:34:08;;;;;;;0.00;0.00;;;8.30;99.90;;;6.85;85.53;100606.34;4969065;28;20058;-82
2022/11/16 09:36:41;;;;;;;0.00;0.00;;;8.40;99.90;;;7.02;85.13;100605.78;4997315;28;20517;-83
2022/11/16 09:39:13;;;;;;;0.00;0.00;;;8.40;99.90;;;6.84;85.33;100602.00;4986056;28;20113;-83
2022/11/16 09:42:07;;;;;;;0.00;0.00;;;8.40;99.90;;;6.86;84.76;100604.56;4983039;28;20499;-82
2022/11/16 09:45:13;;;;;;;0.00;0.00;;;8.30;99.90;;;6.69;84.92;100613.81;5014043;28;20093;-84
2022/11/16 09:48:01;;;;;;;0.00;0.00;;;8.20;99.90;;;6.73;85.19;100604.97;4983217;28;20034;-83
2022/11/16 09:50:53;;;;;;;0.00;0.00;;;8.20;99.90;;;6.73;85.26;100612.81;4974343;28;20088;-82
2022/11/16 09:53:54;;;;;;;0.00;0.00;;;8.30;99.90;;;6.86;85.08;100604.56;4997530;28;20121;-83
2022/11/16 09:56:28;;;;;;;0.00;0.00;;;8.30;99.90;;;6.85;84.84;100602.88;4970610;28;20096;-82
2022/11/16 09:59:06;;;;;;;0.00;0.00;;;8.30;99.90;;;6.73;83.97;100604.97;4981913;28;20050;-82
2022/11/16 10:01:53;;;;;;;0.00;0.00;;;8.30;99.90;;;6.62;84.52;100596.63;4992566;28;20089;-81
2022/11/16 10:04:53;;;;;;;;;;;8.20;99.90;;;6.66;84.44;100597.38;4983364;28;20395;-83
2022/11/16 10:08:14;;;;;;;0.00;0.00;;;8.30;99.90;;;6.70;84.27;100584.16;4932308;29;20366;-82
2022/11/16 10:10:55;;;;;;;0.00;0.00;;;8.30;99.90;;;6.72;84.81;100592.81;4918722;28;20495;-84
2022/11/16 10:13:34;;;;;;;0.00;0.00;;;8.30;99.90;;;6.91;84.87;100584.31;4988762;28;20027;-82
2022/11/16 10:16:47;;;;;;;0.00;0.00;;;8.30;99.90;;;6.89;84.01;100589.63;4987371;28;20129;-82
2022/11/16 10:19:40;;;;;;;0.00;0.00;;;8.40;99.90;;;6.96;83.75;100596.38;4985810;28;20066;-83
2022/11/16 10:22:34;;;;;;;0.00;0.00;;;8.40;99.90;;;7.10;83.80;100587.19;4984912;28;20125;-82
2022/11/16 10:25:19;;;;;;;0.00;0.00;;;8.50;99.90;;;7.21;82.93;100584.19;4982395;28;20066;-81
2022/11/16 10:28:17;;;;;;;0.00;0.00;;;8.60;99.90;;;7.21;83.00;100581.56;4982291;28;20204;-82
2022/11/16 10:31:25;;;;;;;0.00;0.00;;;8.60;99.90;;;7.01;82.85;100580.50;4951589;28;20057;-81
2022/11/16 10:34:05;;;;;;;0.00;0.00;;;8.50;99.90;;;7.06;82.99;100589.06;4978083;28;20105;-80
2022/11/16 10:36:38;;;;;;;0.00;0.00;;;8.50;99.90;;;7.07;82.93;100588.16;4985296;28;20044;-83
2022/11/16 10:39:18;;;;;;;0.00;0.00;;;8.50;99.90;;;6.97;82.90;100581.50;4968849;28;20539;-82
2022/11/16 10:41:49;;;;;;;0.00;0.00;;;8.40;99.90;;;6.91;82.62;100572.13;4968636;28;20038;-84
2022/11/16 10:44:48;;;;;;;0.00;0.00;;;8.40;99.90;;;6.81;82.39;100580.31;4983143;28;20046;-82
2022/11/16 10:47:37;;;;;;;0.00;0.00;;;8.40;99.90;;;6.96;83.06;100580.66;4973789;28;20023;-82
2022/11/16 10:50:36;;;;;;;0.00;0.00;;;8.40;99.90;;;6.86;82.76;100573.16;4979219;28;20415;-83
2022/11/16 10:53:02;;;;;;;0.00;0.00;;;8.40;99.90;;;7.01;83.23;100575.25;4984219;28;20026;-83
2022/11/16 10:55:28;;;;;;;0.00;0.00;;;8.50;99.90;;;7.10;82.64;100574.94;4967533;28;20129;-83
2022/11/16 10:57:59;;;;;;;0.00;0.00;;;8.60;99.90;;;7.18;82.01;100567.66;4979784;28;20045;-82
2022/11/16 11:00:48;;;;;;;0.00;0.00;;;8.60;99.90;;;7.17;82.15;100579.06;4985904;28;20520;-84
2022/11/16 11:04:10;;;;;;;0.00;0.00;;;8.60;99.90;;;7.22;81.37;100564.97;4984424;28;20034;-82
2022/11/16 11:06:26;;;;;;;0.00;0.00;;;8.60;99.90;;;7.18;80.80;100558.97;4979516;28;20054;-85
2022/11/16 11:09:11;;;;;;;0.00;0.00;;;8.60;99.90;;;7.14;81.26;100550.34;4971303;28;20026;-83
2022/11/16 11:14:32;;;;;;;0.00;0.00;;;8.60;99.90;;;7.17;80.60;100546.75;4983477;28;20054;-81
2022/11/16 11:17:16;;;;;;;0.00;0.00;;;8.60;99.90;;;7.16;80.02;100543.31;4984111;28;20519;-83
2022/11/16 11:20:08;;;;;;;0.00;0.00;;;8.70;99.90;;;7.27;79.96;100542.91;5009203;28;20046;-82
2022/11/16 11:23:21;;;;;;;0.00;0.00;;;8.70;99.90;;;7.38;79.99;100540.75;5000450;28;20031;-82
2022/11/16 11:26:00;;;;;;;0.00;0.00;;;8.70;99.90;;;7.19;78.63;100524.88;4986385;28;20039;-82
2022/11/16 11:28:33;;;;;;;0.00;0.00;;;8.70;99.90;;;7.26;77.48;100529.91;4983342;28;20047;-83
2022/11/16 11:31:26;;;;;;;0.00;0.00;;;8.60;99.90;;;7.17;76.80;100531.94;4971400;28;20027;-83
2022/11/16 11:34:22;;;;;;;6.45;3.38;;;8.70;99.90;;;7.15;76.22;100530.28;4986875;28;20050;-81
2022/11/16 11:37:01;;;;;;;22.30;18.70;;;8.70;99.90;;;7.24;76.36;100526.47;4975282;28;20511;-82
2022/11/16 11:39:37;;;;;;;40.70;7.13;;;8.70;99.90;;;7.33;76.11;100531.38;4965741;28;20451;-82
2022/11/16 11:42:21;;;;;;;520.58;214.50;;;8.70;99.90;;;7.32;76.16;100527.91;4965578;28;20364;-82
2022/11/16 11:45:05;;;;;;;5.93;2.85;;;8.70;99.90;;;7.17;76.34;100531.94;4981597;28;20062;-83
2022/11/16 11:48:36;;;;;;;8.00;4.03;;;8.60;99.90;;;7.22;76.13;100515.22;4973878;28;20483;-83
2022/11/16 11:51:28;;;;;;;7.40;3.85;;;8.70;99.90;;;7.28;76.14;100523.69;4916520;29;20032;-82
2022/11/16 11:54:23;;;;;;;9.05;4.57;;;8.70;99.90;;;7.29;76.47;100524.53;4919503;28;20054;-82
2022/11/16 11:56:48;;;;;;;6.20;3.67;;;8.70;99.90;;;7.40;76.54;100517.13;4966317;28;20030;-82
2022/11/16 11:59:24;;;;;;;6.38;3.13;;;8.80;99.90;;;7.30;75.61;100523.63;4987105;28;20043;-81
2022/11/16 12:02:23;;;;;;;6.75;3.63;;;8.70;99.90;;;7.24;75.04;100518.63;4978955;28;20058;-82
2022/11/16 12:05:28;;;;;;;7.95;3.35;;;8.80;99.90;;;6.96;74.91;100520.44;4985051;28;20511;-84
2022/11/16 12:08:30;;;;;;;8.95;4.43;;;8.60;99.90;;;7.01;76.29;100522.91;4984293;28;20042;-83
2022/11/16 12:11:22;;;;;;;8.70;4.07;;;8.60;99.90;;;7.00;76.15;100526.44;4988062;28;20130;-83
2022/11/16 12:13:54;;;;;;;7.75;4.35;;;;;;;6.87;76.18;100525.13;4988830;28;20033;-82
2022/11/16 12:17:20;;;;;;;7.40;3.72;;;8.50;99.90;;;7.05;76.38;100526.28;4982017;28;20062;-82
2022/11/16 12:20:22;;;;;;;8.10;5.13;;;8.50;99.90;;;7.07;76.28;100533.16;4941782;28;20078;-83
2022/11/16 12:23:09;;;;;;;8.50;4.47;;;8.50;99.90;;;7.12;75.98;100526.00;4981292;28;20082;-82
2022/11/16 12:26:01;;;;;;;5.30;2.75;;;8.50;99.90;;;7.00;75.38;100521.22;4982987;28;20046;-81
2022/11/16 12:29:19;;;;;;;4.15;2.58;;;8.50;99.90;;;6.94;75.38;100524.88;4983798;28;20514;-81
2022/11/16 12:32:13;;;;;;;6.60;3.20;;;8.40;99.90;;;6.74;74.53;100528.19;4966200;28;20104;-81
2022/11/16 12:34:47;;;;;;;9.07;4.03;;;8.30;99.90;;;6.84;75.14;100527.88;4984510;28;20095;-82
2022/11/16 12:37:33;;;;;;;6.57;3.83;;;8.30;99.90;;;6.81;74.94;100527.97;4983130;28;20066;-81
2022/11/16 12:40:52;;;;;;;6.97;4.05;;;8.30;99.90;;;6.72;74.25;100527.38;4981680;28;20372;-83
2022/11/16 12:43:35;;;;;;;10.40;4.85;;;8.20;99.90;;;6.72;74.67;100535.22;5002667;28;20085;-82
2022/11/16 12:46:34;;;;;;;7.97;4.43;;;8.20;99.90;;;6.70;73.66;100534.44;4967603;28;20030;-82
2022/11/16 12:49:26;;;;;;;12.65;4.93;;;8.30;99.90;;;6.78;74.38;100528.91;4983709;28;20486;-82
2022/11/16 12:52:43;;;;;;;8.57;4.47;;;8.30;99.90;;;6.84;73.48;100538.34;4983787;28;20057;-81
2022/11/16 12:55:22;;;;;;;6.90;3.83;;;8.20;99.90;;;6.68;73.37;100530.16;4947618;28;20105;-81
2022/11/16 12:58:03;;;;;;;8.10;3.92;;;8.30;99.90;;;6.93;73.10;100536.28;4963546;28;20053;-82
2022/11/16 13:00:46;;;;;;;10.27;3.95;;;8.30;99.90;;;6.88;73.40;100546.03;4982676;28;20042;-81